aviador You're here:

KGRF Decoded Metar

FORT LEWIS in WA, USA
Report Time2018-07-22 03:58:00
UTC Time2018-07-22 04:54:52
Flight Rules vfr VFR
Wind350° at 03 kt
W.Decomp.*RWY 33: 3.0 kt HW 0.2 kt RCW
W.Rank350° ranks 15
Current wind is below 350° avg. (5.8)
Visibility9999 m
Phenomena:N/A
Clouds:N/A
Expected CloudBase > 4,800 ft AGL from Temp-Dew spread
CeilingNone
Temp22°C (ISA +8)
Dew Point10°C (47% RH)
AAT21.0°C
QNH1021 hPa
Density Alt1,086 ft
Elevation302 ft
Report Wrong Elevation
Raw Report
KGRF 220358Z 35003KT 10SM CLR 22/10 A3016 RMK AO2A SLP216
T02200098 $=

Extra information for KGRF:More info

Metar Taf Metar & Taf Last 4 Metars F.Rules Stats Wind Profile Meteogram Temp Stats Airport Information Weather charts Add Link Nearby VenuesMetar ALERT Operation Metar Decoded Social comments

AIRNAV info for KGRF